createdAt,value
2018-01-17T00:00:36.688Z,3.20
2018-01-17T00:03:04.312Z,3.20
2018-01-17T00:05:32.790Z,3.20
2018-01-17T00:08:00.390Z,3.10
2018-01-17T00:10:27.974Z,3.20
2018-01-17T00:12:55.595Z,3.20
2018-01-17T00:15:23.978Z,3.20
2018-01-17T00:17:51.733Z,3.20
2018-01-17T00:20:19.309Z,3.30
2018-01-17T00:22:47.737Z,3.20
2018-01-17T00:25:15.389Z,3.20
2018-01-17T00:27:42.981Z,3.20
2018-01-17T00:30:10.611Z,3.20
2018-01-17T00:32:38.970Z,3.20
2018-01-17T00:35:06.606Z,3.10
2018-01-17T00:37:34.201Z,3.20
2018-01-17T00:40:01.786Z,3.10
2018-01-17T00:42:30.167Z,3.00
2018-01-17T00:44:58.527Z,2.80
2018-01-17T00:47:26.137Z,2.80
2018-01-17T00:49:53.725Z,2.70
2018-01-17T00:52:21.318Z,2.70
2018-01-17T00:54:48.923Z,2.50
2018-01-17T00:57:16.535Z,2.40
2018-01-17T00:59:44.158Z,2.30
2018-01-17T01:02:11.764Z,2.30
2018-01-17T01:04:39.480Z,2.20
2018-01-17T01:07:07.858Z,2.10
2018-01-17T01:09:36.208Z,2.00
2018-01-17T01:12:03.834Z,2.00
2018-01-17T01:14:31.423Z,2.00
2018-01-17T01:16:59.034Z,2.00
2018-01-17T01:19:27.408Z,1.80
2018-01-17T01:21:55.767Z,1.80
2018-01-17T01:24:23.512Z,1.80
2018-01-17T01:26:51.078Z,1.70
2018-01-17T01:29:18.716Z,1.70
2018-01-17T01:31:46.314Z,1.60
2018-01-17T01:34:13.920Z,1.50
2018-01-17T01:36:41.563Z,1.50
2018-01-17T01:39:09.138Z,1.50
2018-01-17T01:41:38.253Z,1.50
2018-01-17T01:44:05.839Z,1.50
2018-01-17T01:46:33.477Z,1.50
2018-01-17T01:49:01.832Z,1.50
2018-01-17T01:51:29.467Z,1.50
2018-01-17T01:53:57.062Z,1.50
2018-01-17T01:56:24.824Z,1.50
2018-01-17T01:58:52.435Z,1.50
2018-01-17T02:01:20.846Z,1.60
2018-01-17T02:03:48.453Z,1.60
2018-01-17T02:06:16.039Z,1.50
2018-01-17T02:08:44.451Z,1.60
2018-01-17T02:11:12.096Z,1.60
2018-01-17T02:13:39.679Z,1.60
2018-01-17T02:16:08.055Z,1.60
2018-01-17T02:18:36.421Z,1.60
2018-01-17T02:21:04.802Z,1.60
2018-01-17T02:23:33.903Z,1.60
2018-01-17T02:26:01.523Z,1.60
2018-01-17T02:28:29.117Z,1.60
2018-01-17T02:30:58.202Z,1.80
2018-01-17T02:33:25.807Z,1.80
2018-01-17T02:35:53.399Z,1.90
2018-01-17T02:38:20.999Z,2.00
2018-01-17T02:40:48.596Z,2.10
2018-01-17T02:43:16.183Z,2.10
2018-01-17T02:45:44.583Z,2.30
2018-01-17T02:48:12.168Z,2.20
2018-01-17T02:50:39.799Z,2.30
2018-01-17T02:53:08.172Z,2.30
2018-01-17T02:55:36.531Z,2.30
2018-01-17T02:58:04.147Z,2.30
2018-01-17T03:00:31.739Z,2.30
2018-01-17T03:02:59.373Z,2.30
2018-01-17T03:05:26.985Z,2.30
2018-01-17T03:07:54.580Z,2.30
2018-01-17T03:10:22.964Z,2.40
2018-01-17T03:12:51.494Z,2.30
2018-01-17T03:15:19.115Z,2.30
2018-01-17T03:17:47.463Z,2.40
2018-01-17T03:20:15.067Z,2.30
2018-01-17T03:22:43.442Z,2.40
2018-01-17T03:25:12.180Z,2.40
2018-01-17T03:27:39.778Z,2.40
2018-01-17T03:30:07.366Z,2.40
2018-01-17T03:32:35.727Z,2.50
2018-01-17T03:35:04.066Z,2.50
2018-01-17T03:37:31.674Z,2.50
2018-01-17T03:39:59.264Z,2.60
2018-01-17T03:42:27.675Z,2.60
2018-01-17T03:44:55.403Z,2.60
2018-01-17T03:47:23.767Z,2.60
2018-01-17T03:49:51.379Z,2.60
2018-01-17T03:52:19.738Z,2.60
2018-01-17T03:54:47.362Z,2.60
2018-01-17T03:57:14.967Z,2.60
2018-01-17T03:59:42.571Z,2.60
2018-01-17T04:02:10.189Z,2.60
2018-01-17T04:04:37.783Z,2.50
2018-01-17T04:07:06.161Z,2.50
2018-01-17T04:09:34.516Z,2.50
2018-01-17T04:12:02.112Z,2.50
2018-01-17T04:14:30.469Z,2.50
2018-01-17T04:16:58.827Z,2.50
2018-01-17T04:19:26.450Z,2.40
2018-01-17T04:21:54.807Z,2.50
2018-01-17T04:24:23.217Z,2.50
2018-01-17T04:26:51.582Z,2.60
2018-01-17T04:29:19.941Z,2.60
2018-01-17T04:31:47.561Z,2.60
2018-01-17T04:34:15.149Z,2.70
2018-01-17T04:36:42.829Z,2.80
2018-01-17T04:39:10.418Z,2.80
2018-01-17T04:41:38.030Z,2.80
2018-01-17T04:44:05.646Z,2.80
2018-01-17T04:46:34.743Z,2.80
2018-01-17T04:49:03.273Z,2.80
2018-01-17T04:51:30.866Z,2.80
2018-01-17T04:53:59.234Z,2.90
2018-01-17T04:56:26.819Z,2.90
2018-01-17T04:58:54.410Z,2.90
2018-01-17T05:01:22.023Z,2.90
2018-01-17T05:03:49.601Z,3.00
2018-01-17T05:06:17.304Z,3.00
2018-01-17T05:08:45.673Z,3.10
2018-01-17T05:11:13.246Z,3.10
2018-01-17T05:13:40.860Z,3.10
2018-01-17T05:16:09.219Z,3.00
2018-01-17T05:18:37.635Z,2.90
2018-01-17T05:21:05.249Z,2.90
2018-01-17T05:23:32.883Z,2.90
2018-01-17T05:26:00.461Z,2.80
2018-01-17T05:28:28.117Z,2.70
2018-01-17T05:30:55.728Z,2.70
2018-01-17T05:33:24.093Z,2.60
2018-01-17T05:35:51.701Z,2.60
2018-01-17T05:38:20.049Z,2.60
2018-01-17T05:40:47.627Z,2.50
2018-01-17T05:43:16.013Z,2.50
2018-01-17T05:45:44.358Z,2.40
2018-01-17T05:48:12.006Z,2.40
2018-01-17T05:50:39.655Z,2.30
2018-01-17T05:53:07.235Z,2.30
2018-01-17T05:55:34.853Z,2.30
2018-01-17T05:58:02.495Z,2.30
2018-01-17T06:00:30.137Z,2.30
2018-01-17T06:02:57.775Z,2.30
2018-01-17T06:05:25.386Z,2.30
2018-01-17T06:07:53.027Z,2.30
2018-01-17T06:10:20.771Z,2.20
2018-01-17T06:12:49.152Z,2.20
2018-01-17T06:15:17.521Z,2.20
2018-01-17T06:17:45.123Z,2.20
2018-01-17T06:20:12.714Z,2.20
2018-01-17T06:22:40.331Z,2.20
2018-01-17T06:25:08.730Z,2.30
2018-01-17T06:27:37.054Z,2.30
2018-01-17T06:30:04.704Z,2.30
2018-01-17T06:32:32.294Z,2.30
2018-01-17T06:34:59.908Z,2.30
2018-01-17T06:37:27.501Z,2.30
2018-01-17T06:39:55.468Z,2.40
2018-01-17T06:42:23.859Z,2.40
2018-01-17T06:44:51.462Z,2.40
2018-01-17T06:47:19.082Z,2.50
2018-01-17T06:49:46.672Z,2.50
2018-01-17T06:52:14.370Z,2.60
2018-01-17T06:54:42.722Z,2.60
2018-01-17T06:57:10.326Z,2.60
2018-01-17T06:59:38.765Z,2.60
2018-01-17T07:02:06.360Z,2.50
2018-01-17T07:04:34.758Z,2.50
2018-01-17T07:07:03.126Z,2.50
2018-01-17T07:09:31.508Z,2.50
2018-01-17T07:11:59.139Z,2.50
2018-01-17T07:14:26.786Z,2.50
2018-01-17T07:16:54.647Z,2.60
2018-01-17T07:19:22.227Z,2.60
2018-01-17T07:21:49.809Z,2.60
2018-01-17T07:24:17.455Z,2.60
2018-01-17T07:26:45.039Z,2.70
2018-01-17T07:29:12.635Z,2.70
2018-01-17T07:31:40.260Z,2.80
2018-01-17T07:34:07.910Z,2.90
2018-01-17T07:36:35.507Z,3.00
2018-01-17T07:39:03.901Z,3.10
2018-01-17T07:41:31.513Z,3.10
2018-01-17T07:43:59.926Z,3.20
2018-01-17T07:46:27.677Z,3.20
2018-01-17T07:48:55.286Z,3.30
2018-01-17T07:51:22.873Z,3.30
2018-01-17T07:53:51.288Z,3.20
2018-01-17T07:56:18.876Z,3.20
2018-01-17T07:58:46.593Z,3.00
2018-01-17T08:01:14.193Z,2.80
2018-01-17T08:03:41.823Z,2.70
2018-01-17T08:06:09.725Z,2.60
2018-01-17T08:08:37.323Z,2.30
2018-01-17T08:11:05.041Z,2.00
2018-01-17T08:13:33.428Z,1.60
2018-01-17T08:16:01.809Z,1.50
2018-01-17T08:18:30.157Z,1.40
2018-01-17T08:20:57.770Z,1.40
2018-01-17T08:23:25.369Z,1.30
2018-01-17T08:25:53.229Z,1.10
2018-01-17T08:28:20.832Z,1.00
2018-01-17T08:30:48.434Z,0.70
2018-01-17T08:33:16.068Z,0.60
2018-01-17T08:35:44.431Z,0.30
2018-01-17T08:38:12.080Z,0.40
2018-01-17T08:40:39.684Z,0.30
2018-01-17T08:43:08.050Z,0.30
2018-01-17T08:45:35.675Z,0.30
2018-01-17T08:48:03.267Z,0.30
2018-01-17T08:50:30.884Z,0.30
2018-01-17T08:52:59.284Z,0.30
2018-01-17T08:55:26.871Z,0.30
2018-01-17T08:57:54.551Z,0.30
2018-01-17T09:00:22.165Z,0.30
2018-01-17T09:02:50.551Z,0.40
2018-01-17T09:05:18.196Z,0.40
2018-01-17T09:07:45.812Z,0.40
2018-01-17T09:10:13.422Z,0.50
2018-01-17T09:12:41.810Z,0.50
2018-01-17T09:15:10.284Z,0.60
2018-01-17T09:17:37.877Z,0.60
2018-01-17T09:20:06.266Z,0.60
2018-01-17T09:22:34.715Z,0.60
2018-01-17T09:25:03.100Z,0.60
2018-01-17T09:27:32.204Z,0.60
2018-01-17T09:29:59.817Z,0.70
2018-01-17T09:32:27.408Z,0.70
2018-01-17T09:34:55.003Z,0.70
2018-01-17T09:37:23.385Z,0.70
2018-01-17T09:39:50.979Z,0.70
2018-01-17T09:42:18.661Z,0.70
2018-01-17T09:44:46.263Z,0.70
2018-01-17T09:47:13.853Z,0.80
2018-01-17T09:49:42.242Z,0.80
2018-01-17T09:52:10.643Z,0.80
2018-01-17T09:54:39.063Z,0.90
2018-01-17T09:57:06.651Z,0.90
2018-01-17T09:59:34.247Z,0.90
2018-01-17T10:02:02.688Z,1.00
2018-01-17T10:04:30.877Z,1.00
2018-01-17T10:06:58.503Z,1.00
2018-01-17T10:09:26.863Z,1.10
2018-01-17T10:11:55.222Z,1.20
2018-01-17T10:14:22.871Z,1.10
2018-01-17T10:16:50.508Z,1.20
2018-01-17T10:19:18.166Z,1.30
2018-01-17T10:21:45.932Z,1.70
2018-01-17T10:24:13.633Z,2.10
2018-01-17T10:26:41.282Z,2.30
2018-01-17T10:29:08.882Z,2.20
2018-01-17T10:31:36.515Z,2.10
2018-01-17T10:34:04.121Z,2.00
2018-01-17T10:36:32.510Z,1.90
2018-01-17T10:39:00.874Z,1.80
2018-01-17T10:41:28.491Z,1.80
2018-01-17T10:43:56.090Z,1.70
2018-01-17T10:46:23.702Z,1.70
2018-01-17T10:48:52.085Z,1.60
2018-01-17T10:51:20.450Z,1.60
2018-01-17T10:53:49.580Z,1.60
2018-01-17T10:56:17.956Z,1.60
2018-01-17T10:58:46.330Z,1.60
2018-01-17T11:01:14.240Z,1.60
2018-01-17T11:03:41.902Z,1.60
2018-01-17T11:06:09.548Z,1.60
2018-01-17T11:08:37.900Z,1.50
2018-01-17T11:11:06.810Z,1.60
2018-01-17T11:13:35.167Z,1.70
2018-01-17T11:16:02.785Z,1.60
2018-01-17T11:18:30.441Z,1.70
2018-01-17T11:20:58.946Z,1.80
2018-01-17T11:23:26.565Z,1.80
2018-01-17T11:25:54.922Z,1.80
2018-01-17T11:28:22.606Z,1.70
2018-01-17T11:30:50.218Z,1.80
2018-01-17T11:33:17.839Z,1.80
2018-01-17T11:35:45.494Z,1.80
2018-01-17T11:38:13.098Z,1.70
2018-01-17T11:40:41.525Z,1.70
2018-01-17T11:43:09.891Z,1.70
2018-01-17T11:45:37.492Z,1.70
2018-01-17T11:48:05.150Z,1.70
2018-01-17T11:50:32.755Z,1.60
2018-01-17T11:53:00.383Z,1.60
2018-01-17T11:55:27.983Z,1.60
2018-01-17T11:57:57.099Z,1.70
2018-01-17T12:00:25.552Z,1.70
2018-01-17T12:02:53.144Z,1.70
2018-01-17T12:05:21.528Z,1.70
2018-01-17T12:07:49.915Z,1.70
2018-01-17T12:10:18.316Z,1.70
2018-01-17T12:12:45.992Z,1.70
2018-01-17T12:15:13.604Z,1.70
2018-01-17T12:17:41.995Z,1.70
2018-01-17T12:20:09.584Z,1.70
2018-01-17T12:22:37.981Z,1.80
2018-01-17T12:25:05.632Z,1.70
2018-01-17T12:27:33.252Z,1.80
2018-01-17T12:30:00.873Z,1.70
2018-01-17T12:32:28.486Z,1.70
2018-01-17T12:34:56.096Z,1.60
2018-01-17T12:37:24.602Z,1.50
2018-01-17T12:39:52.228Z,1.50
2018-01-17T12:42:21.325Z,1.30
2018-01-17T12:44:50.479Z,1.10
2018-01-17T12:47:18.083Z,1.10
2018-01-17T12:49:45.733Z,0.90
2018-01-17T12:52:13.346Z,0.70
2018-01-17T12:54:41.710Z,0.40
2018-01-17T12:57:10.108Z,0.10
2018-01-17T12:59:38.465Z,-0.10
2018-01-17T13:02:06.094Z,-0.10
2018-01-17T13:04:33.704Z,-0.30
2018-01-17T13:07:02.110Z,-0.30
2018-01-17T13:09:30.476Z,-0.20
2018-01-17T13:11:58.835Z,-0.10
2018-01-17T13:14:26.463Z,-0.10
2018-01-17T13:16:54.238Z,0.00
2018-01-17T13:19:21.924Z,0.20
2018-01-17T13:21:49.515Z,0.40
2018-01-17T13:24:17.098Z,0.60
2018-01-17T13:26:45.481Z,0.80
2018-01-17T13:29:13.847Z,0.80
2018-01-17T13:31:42.255Z,0.80
2018-01-17T13:34:10.630Z,0.80
2018-01-17T13:36:38.997Z,0.80
2018-01-17T13:39:06.605Z,0.80
2018-01-17T13:41:34.318Z,0.80
2018-01-17T13:44:02.127Z,0.80
2018-01-17T13:46:30.537Z,0.70
2018-01-17T13:48:58.128Z,0.70
2018-01-17T13:51:25.838Z,0.80
2018-01-17T13:53:54.206Z,0.90
2018-01-17T13:56:21.843Z,0.90
2018-01-17T13:58:49.456Z,0.90
2018-01-17T14:01:17.845Z,1.00
2018-01-17T14:03:46.238Z,0.90
2018-01-17T14:06:14.643Z,0.90
2018-01-17T14:08:43.024Z,0.90
2018-01-17T14:11:10.647Z,0.90
2018-01-17T14:13:39.044Z,0.90
2018-01-17T14:16:07.402Z,0.90
2018-01-17T14:18:35.001Z,0.80
2018-01-17T14:21:03.396Z,0.90
2018-01-17T14:23:31.175Z,0.90
2018-01-17T14:25:58.793Z,0.90
2018-01-17T14:28:27.253Z,0.80
2018-01-17T14:30:55.628Z,0.80
2018-01-17T14:33:23.266Z,0.80
2018-01-17T14:35:50.909Z,0.80
2018-01-17T14:38:19.277Z,0.80
2018-01-17T14:40:46.883Z,0.80
2018-01-17T14:43:16.447Z,0.80
2018-01-17T14:45:44.963Z,0.80
2018-01-17T14:48:12.601Z,0.80
2018-01-17T14:50:41.703Z,0.80
2018-01-17T14:53:09.359Z,0.80
2018-01-17T14:55:37.786Z,0.80
2018-01-17T14:58:05.389Z,0.70
2018-01-17T15:00:33.013Z,0.70
2018-01-17T15:03:01.409Z,0.70
2018-01-17T15:05:29.936Z,0.70
2018-01-17T15:07:57.548Z,0.70
2018-01-17T15:10:25.907Z,0.70
2018-01-17T15:12:54.293Z,0.60
2018-01-17T15:15:22.672Z,0.60
2018-01-17T15:17:50.374Z,0.60
2018-01-17T15:20:18.107Z,0.70
2018-01-17T15:22:45.700Z,0.70
2018-01-17T15:25:13.344Z,0.70
2018-01-17T15:27:41.742Z,0.60
2018-01-17T15:30:09.346Z,0.60
2018-01-17T15:32:36.971Z,0.60
2018-01-17T15:35:04.566Z,0.60
2018-01-17T15:37:32.177Z,0.60
2018-01-17T15:40:01.282Z,0.50
2018-01-17T15:42:28.892Z,0.50
2018-01-17T15:44:56.518Z,0.50
2018-01-17T15:47:24.899Z,0.50
2018-01-17T15:49:53.287Z,0.50
2018-01-17T15:52:21.640Z,0.50
2018-01-17T15:54:49.653Z,0.50
2018-01-17T15:57:18.029Z,0.50
2018-01-17T15:59:46.423Z,0.50
2018-01-17T16:02:14.822Z,0.50
2018-01-17T16:04:42.412Z,0.50
2018-01-17T16:07:10.106Z,0.40
2018-01-17T16:09:37.704Z,0.40
2018-01-17T16:12:06.093Z,0.30
2018-01-17T16:14:34.474Z,0.20
2018-01-17T16:17:02.852Z,0.20
2018-01-17T16:19:31.264Z,0.20
2018-01-17T16:21:58.866Z,0.20
2018-01-17T16:24:26.490Z,0.20
2018-01-17T16:26:54.083Z,0.20
2018-01-17T16:29:21.690Z,0.30
2018-01-17T16:31:50.130Z,0.30
2018-01-17T16:34:18.516Z,0.40
2018-01-17T16:36:46.148Z,0.30
2018-01-17T16:39:13.768Z,0.40
2018-01-17T16:41:41.500Z,0.40
2018-01-17T16:44:09.113Z,0.40
2018-01-17T16:46:37.492Z,0.40
2018-01-17T16:49:05.183Z,0.40
2018-01-17T16:51:32.951Z,0.40
2018-01-17T16:54:01.384Z,0.40
2018-01-17T16:56:28.963Z,0.40
2018-01-17T16:58:56.587Z,0.40
2018-01-17T17:01:24.301Z,0.40
2018-01-17T17:03:51.891Z,0.40
2018-01-17T17:06:20.302Z,0.50
2018-01-17T17:08:47.974Z,0.50
2018-01-17T17:11:15.648Z,0.50
2018-01-17T17:13:43.411Z,0.50
2018-01-17T17:16:11.064Z,0.50
2018-01-17T17:18:38.692Z,0.50
2018-01-17T17:21:06.303Z,0.50
2018-01-17T17:23:33.953Z,0.60
2018-01-17T17:26:02.353Z,0.60
2018-01-17T17:28:30.153Z,0.50
2018-01-17T17:30:57.773Z,0.50
2018-01-17T17:33:25.451Z,0.50
2018-01-17T17:35:53.336Z,0.50
2018-01-17T17:38:20.965Z,0.50
2018-01-17T17:40:48.603Z,0.40
2018-01-17T17:43:16.199Z,0.40
2018-01-17T17:45:44.604Z,0.40
2018-01-17T17:48:12.251Z,0.40
2018-01-17T17:50:40.676Z,0.30
2018-01-17T17:53:08.367Z,0.30
2018-01-17T17:55:36.038Z,0.30
2018-01-17T17:58:03.688Z,0.30
2018-01-17T18:00:31.293Z,0.30
2018-01-17T18:02:58.996Z,0.40
2018-01-17T18:05:26.598Z,0.40
2018-01-17T18:10:36.411Z,0.50
2018-01-17T18:13:04.055Z,0.50
2018-01-17T18:15:31.658Z,0.60
2018-01-17T18:17:59.292Z,0.60
2018-01-17T18:20:26.937Z,0.60
2018-01-17T18:22:54.569Z,0.60
2018-01-17T18:25:22.248Z,0.60
2018-01-17T18:27:49.893Z,0.60
2018-01-17T18:30:17.928Z,0.60
2018-01-17T18:32:46.346Z,0.60
2018-01-17T18:35:13.947Z,0.60
2018-01-17T18:37:41.620Z,0.60
2018-01-17T18:40:09.299Z,0.60
2018-01-17T18:45:00.414Z,0.60
2018-01-17T18:47:29.972Z,0.60
2018-01-17T18:49:58.480Z,0.50
2018-01-17T18:52:26.172Z,0.50
2018-01-17T18:54:53.858Z,0.50
2018-01-17T18:57:21.586Z,0.50
2018-01-17T18:59:49.247Z,0.40
2018-01-17T19:02:16.961Z,0.40
2018-01-17T19:04:44.647Z,0.40
2018-01-17T19:07:13.206Z,0.40
2018-01-17T19:09:41.785Z,0.20
2018-01-17T19:12:09.527Z,0.20
2018-01-17T19:14:37.240Z,0.10
2018-01-17T19:17:05.083Z,0.10
2018-01-17T19:19:32.769Z,0.10
2018-01-17T19:22:00.725Z,0.10
2018-01-17T19:24:29.303Z,0.10
2018-01-17T19:26:57.028Z,0.20
2018-01-17T19:29:24.937Z,0.20
2018-01-17T19:31:52.710Z,0.30
2018-01-17T19:34:20.477Z,0.30
2018-01-17T19:36:49.824Z,0.30
2018-01-17T19:39:17.660Z,0.30
2018-01-17T19:41:45.533Z,0.40
2018-01-17T19:44:13.598Z,0.40
2018-01-17T19:46:41.405Z,0.40
2018-01-17T19:49:09.149Z,0.40
2018-01-17T19:51:37.023Z,0.40
2018-01-17T19:54:04.755Z,0.40
2018-01-17T19:56:34.366Z,0.30
2018-01-17T19:59:02.162Z,0.30
2018-01-17T20:01:29.886Z,0.30
2018-01-17T20:03:58.354Z,0.20
2018-01-17T20:06:27.576Z,0.20
2018-01-17T20:08:56.074Z,0.20
2018-01-17T20:11:24.554Z,0.10
2018-01-17T20:13:53.134Z,0.10
2018-01-17T20:16:21.575Z,0.10
2018-01-17T20:18:49.267Z,0.10
2018-01-17T20:21:17.100Z,0.10
2018-01-17T20:23:44.766Z,0.10
2018-01-17T20:26:13.277Z,0.10
2018-01-17T20:28:40.996Z,0.20
2018-01-17T20:31:09.444Z,0.20
2018-01-17T20:33:37.089Z,0.20
2018-01-17T20:36:04.789Z,0.20
2018-01-17T20:38:32.496Z,0.20
2018-01-17T20:41:00.411Z,0.20
2018-01-17T20:43:28.146Z,0.10
2018-01-17T20:45:55.894Z,0.20
2018-01-17T20:48:23.689Z,0.20
2018-01-17T20:50:51.414Z,0.20
2018-01-17T20:53:19.855Z,0.20
2018-01-17T20:55:47.522Z,0.20
2018-01-17T20:58:15.225Z,0.20
2018-01-17T21:00:43.681Z,0.40
2018-01-17T21:03:11.370Z,0.30
2018-01-17T21:05:40.597Z,0.40
2018-01-17T21:08:09.003Z,0.50
2018-01-17T21:10:36.599Z,0.50
2018-01-17T21:13:04.320Z,0.50
2018-01-17T21:15:32.772Z,0.40
2018-01-17T21:18:02.036Z,0.40
2018-01-17T21:20:29.656Z,0.40
2018-01-17T21:22:58.764Z,0.30
2018-01-17T21:25:27.406Z,0.30
2018-01-17T21:27:55.067Z,0.30
2018-01-17T21:30:22.684Z,0.30
2018-01-17T21:32:50.299Z,0.30
2018-01-17T21:35:17.935Z,0.40
2018-01-17T21:37:46.310Z,0.40
2018-01-17T21:40:14.689Z,0.40
2018-01-17T21:42:48.027Z,0.40
2018-01-17T21:45:21.244Z,0.40
2018-01-17T21:47:48.867Z,0.40
2018-01-17T21:50:16.668Z,0.40
2018-01-17T21:52:44.275Z,0.40
2018-01-17T21:55:12.685Z,0.40
2018-01-17T21:57:40.310Z,0.40
2018-01-17T22:00:08.712Z,0.40
2018-01-17T22:02:36.310Z,0.40
2018-01-17T22:05:03.947Z,0.40
2018-01-17T22:07:32.412Z,0.50
2018-01-17T22:10:01.539Z,0.40
2018-01-17T22:12:30.123Z,0.50
2018-01-17T22:14:58.551Z,0.50
2018-01-17T22:17:26.258Z,0.50
2018-01-17T22:19:54.729Z,0.60
2018-01-17T22:22:22.334Z,0.50
2018-01-17T22:24:50.698Z,0.60
2018-01-17T22:27:19.097Z,0.60
2018-01-17T22:29:47.605Z,0.60
2018-01-17T22:32:15.225Z,0.60
2018-01-17T22:34:43.579Z,0.70
2018-01-17T22:37:11.222Z,0.60
2018-01-17T22:39:38.815Z,0.70
2018-01-17T22:42:06.433Z,0.60
2018-01-17T22:44:34.840Z,0.70
2018-01-17T22:47:02.426Z,0.60
2018-01-17T22:49:30.049Z,0.70
2018-01-17T22:51:58.421Z,0.70
2018-01-17T22:54:26.809Z,0.60
2018-01-17T22:56:55.156Z,0.70
2018-01-17T22:59:22.769Z,0.60
2018-01-17T23:01:51.134Z,0.70
2018-01-17T23:04:19.545Z,0.70
2018-01-17T23:06:47.167Z,0.70
2018-01-17T23:09:15.623Z,0.70
2018-01-17T23:11:43.261Z,0.70
2018-01-17T23:14:10.868Z,0.70
2018-01-17T23:16:38.484Z,0.70
2018-01-17T23:19:06.084Z,0.80
2018-01-17T23:21:33.719Z,0.80
2018-01-17T23:24:01.313Z,0.80
2018-01-17T23:26:28.946Z,0.80
2018-01-17T23:28:56.585Z,0.80
2018-01-17T23:31:24.978Z,0.80
2018-01-17T23:33:53.356Z,0.80
2018-01-17T23:36:20.968Z,0.80
2018-01-17T23:38:48.552Z,0.80
2018-01-17T23:41:16.166Z,0.80
2018-01-17T23:43:44.544Z,0.80
2018-01-17T23:46:13.015Z,0.80
2018-01-17T23:48:41.398Z,0.80
2018-01-17T23:51:09.784Z,0.80
2018-01-17T23:53:37.397Z,0.80
2018-01-17T23:56:05.008Z,0.80
2018-01-17T23:58:32.624Z,0.80
